createdAt,value
2022-08-19T00:02:13.342Z,11.93
2022-08-19T00:04:41.209Z,11.80
2022-08-19T00:07:08.945Z,12.10
2022-08-19T00:09:36.235Z,11.40
2022-08-19T00:12:04.449Z,11.13
2022-08-19T00:14:33.006Z,11.35
2022-08-19T00:17:01.135Z,11.30
2022-08-19T00:19:28.234Z,11.82
2022-08-19T00:21:57.321Z,11.98
2022-08-19T00:24:24.739Z,11.48
2022-08-19T00:26:52.894Z,11.18
2022-08-19T00:29:25.631Z,11.50
2022-08-19T00:31:57.620Z,11.65
2022-08-19T00:34:26.097Z,11.38
2022-08-19T00:36:53.180Z,12.00
2022-08-19T00:39:20.330Z,11.57
2022-08-19T00:41:50.610Z,12.38
2022-08-19T00:44:27.064Z,12.18
2022-08-19T00:46:59.167Z,11.77
2022-08-19T00:52:31.080Z,11.45
2022-08-19T00:55:00.160Z,12.18
2022-08-19T00:57:35.552Z,12.38
2022-08-19T01:00:07.766Z,11.30
2022-08-19T01:02:34.803Z,12.02
2022-08-19T01:05:10.978Z,12.57
2022-08-19T01:07:41.690Z,12.07
2022-08-19T01:10:20.145Z,11.82
2022-08-19T01:12:48.915Z,11.45
2022-08-19T01:15:22.256Z,12.18
2022-08-19T01:17:50.234Z,10.95
2022-08-19T01:20:22.249Z,11.70
2022-08-19T01:22:59.541Z,12.23
2022-08-19T01:25:41.866Z,11.43
2022-08-19T01:28:10.872Z,11.35
2022-08-19T01:30:38.927Z,11.93
2022-08-19T01:33:06.933Z,10.82
2022-08-19T01:35:34.028Z,11.07
2022-08-19T01:38:08.688Z,12.30
2022-08-19T01:40:41.383Z,10.80
2022-08-19T01:45:37.271Z,11.40
2022-08-19T01:48:05.293Z,10.82
2022-08-19T01:50:35.044Z,10.85
2022-08-19T01:53:07.966Z,11.00
2022-08-19T01:55:40.584Z,11.50
2022-08-19T01:58:16.023Z,11.23
2022-08-19T02:00:44.629Z,11.50
2022-08-19T02:03:12.459Z,10.77
2022-08-19T02:05:41.666Z,11.65
2022-08-19T02:08:09.820Z,11.32
2022-08-19T02:10:42.812Z,11.60
2022-08-19T02:13:11.132Z,11.52
2022-08-19T02:15:38.992Z,11.43
2022-08-19T02:18:06.632Z,11.88
2022-08-19T02:20:33.845Z,10.77
2022-08-19T02:23:02.214Z,11.38
2022-08-19T02:25:29.363Z,11.73
2022-08-19T02:27:56.590Z,11.57
2022-08-19T02:30:23.724Z,12.25
2022-08-19T02:32:52.517Z,11.90
2022-08-19T02:35:19.787Z,11.40
2022-08-19T02:38:05.656Z,12.15
2022-08-19T02:40:37.645Z,11.65
2022-08-19T02:43:08.594Z,11.68
2022-08-19T02:45:40.470Z,12.15
2022-08-19T02:48:12.700Z,11.90
2022-08-19T02:50:56.108Z,12.15
2022-08-19T02:53:26.909Z,12.38
2022-08-19T02:55:54.687Z,11.88
2022-08-19T02:58:23.986Z,12.38
2022-08-19T03:00:56.714Z,11.88
2022-08-19T03:03:24.584Z,12.20
2022-08-19T03:05:56.742Z,12.43
2022-08-19T03:08:26.565Z,12.35
2022-08-19T03:10:54.079Z,11.93
2022-08-19T03:13:21.218Z,12.43
2022-08-19T03:15:49.429Z,11.80
2022-08-19T03:18:17.928Z,12.35
2022-08-19T03:20:49.964Z,12.30
2022-08-19T03:23:17.840Z,11.70
2022-08-19T03:26:03.153Z,11.50
2022-08-19T03:28:35.960Z,11.77
2022-08-19T03:31:43.936Z,11.70
2022-08-19T03:33:59.533Z,12.40
2022-08-19T03:36:29.514Z,12.07
2022-08-19T03:39:00.274Z,11.82
2022-08-19T03:41:43.291Z,12.43
2022-08-19T03:44:18.409Z,12.05
2022-08-19T03:46:49.633Z,12.05
2022-08-19T03:49:18.337Z,11.85
2022-08-19T03:51:47.090Z,13.00
2022-08-19T03:54:17.309Z,11.57
2022-08-19T03:56:47.780Z,11.73
2022-08-19T03:59:30.770Z,11.02
2022-08-19T04:02:00.065Z,12.73
2022-08-19T04:04:29.249Z,12.00
2022-08-19T04:06:57.774Z,13.15
2022-08-19T04:09:25.318Z,11.00
2022-08-19T04:11:55.663Z,11.70
2022-08-19T04:14:29.324Z,12.55
2022-08-19T04:16:56.595Z,11.30
2022-08-19T04:19:24.343Z,11.63
2022-08-19T04:21:54.818Z,11.93
2022-08-19T04:24:23.510Z,11.13
2022-08-19T04:26:51.363Z,11.90
2022-08-19T04:29:25.730Z,12.52
2022-08-19T04:31:56.516Z,11.88
2022-08-19T04:34:27.197Z,11.10
2022-08-19T04:36:57.366Z,12.50
2022-08-19T04:40:04.271Z,11.48
2022-08-19T04:42:40.054Z,11.23
2022-08-19T04:45:13.874Z,11.43
2022-08-19T04:47:49.251Z,11.00
2022-08-19T04:50:27.592Z,12.40
2022-08-19T04:52:56.513Z,12.27
2022-08-19T04:55:26.679Z,12.43
2022-08-19T04:57:55.528Z,11.43
2022-08-19T05:00:23.454Z,11.38
2022-08-19T05:02:50.638Z,12.10
2022-08-19T05:05:18.297Z,11.73
2022-08-19T05:07:45.433Z,11.75
2022-08-19T05:10:13.718Z,11.60
2022-08-19T05:12:41.024Z,13.45
2022-08-19T05:15:12.189Z,11.52
2022-08-19T05:17:39.452Z,12.38
2022-08-19T05:20:27.898Z,11.52
2022-08-19T05:22:55.083Z,10.98
2022-08-19T05:25:23.520Z,11.05
2022-08-19T05:27:50.529Z,11.43
2022-08-19T05:30:18.589Z,11.95
2022-08-19T05:32:51.345Z,10.82
2022-08-19T05:35:21.574Z,11.77
2022-08-19T05:37:48.551Z,12.95
2022-08-19T05:40:21.939Z,11.80
2022-08-19T05:42:55.194Z,10.30
2022-08-19T05:45:22.880Z,11.15
2022-08-19T05:47:49.839Z,10.23
2022-08-19T05:50:18.464Z,10.55
2022-08-19T05:52:54.357Z,10.88
2022-08-19T05:55:21.929Z,9.77
2022-08-19T05:57:49.418Z,10.57
2022-08-19T06:00:19.482Z,10.07
2022-08-19T06:02:49.901Z,10.57
2022-08-19T06:05:17.037Z,10.43
2022-08-19T06:07:44.119Z,10.50
2022-08-19T06:10:15.394Z,10.40
2022-08-19T06:12:42.370Z,10.52
2022-08-19T06:15:13.059Z,10.18
2022-08-19T06:17:40.405Z,10.40
2022-08-19T06:20:14.584Z,8.98
2022-08-19T06:22:48.294Z,9.27
2022-08-19T06:25:16.470Z,9.77
2022-08-19T06:28:11.361Z,9.15
2022-08-19T06:30:32.335Z,9.00
2022-08-19T06:32:59.573Z,9.23
2022-08-19T06:35:26.572Z,9.00
2022-08-19T06:37:53.895Z,8.93
2022-08-19T06:40:21.145Z,9.23
2022-08-19T06:42:54.279Z,8.70
2022-08-19T06:45:34.611Z,9.07
2022-08-19T06:48:03.933Z,8.70
2022-08-19T06:50:31.095Z,8.82
2022-08-19T06:52:58.042Z,9.20
2022-08-19T06:55:31.106Z,8.68
2022-08-19T06:58:04.826Z,8.57
2022-08-19T07:03:07.812Z,8.40
2022-08-19T07:05:45.947Z,8.55
2022-08-19T07:08:14.754Z,7.70
2022-08-19T07:10:46.075Z,8.27
2022-08-19T07:13:13.495Z,8.25
2022-08-19T07:15:40.650Z,7.78
2022-08-19T07:18:07.894Z,7.45
2022-08-19T07:20:42.042Z,8.18
2022-08-19T07:23:09.950Z,8.13
2022-08-19T07:25:44.291Z,7.57
2022-08-19T07:28:14.347Z,8.25
2022-08-19T07:30:52.873Z,8.18
2022-08-19T07:33:20.266Z,8.38
2022-08-19T07:35:47.354Z,7.75
2022-08-19T07:38:15.822Z,7.20
2022-08-19T07:40:44.390Z,7.03
2022-08-19T07:43:14.204Z,7.70
2022-08-19T07:45:44.513Z,8.25
2022-08-19T07:48:12.097Z,7.47
2022-08-19T07:50:39.521Z,7.15
2022-08-19T07:53:06.539Z,6.95
2022-08-19T07:55:40.525Z,6.85
2022-08-19T07:58:14.846Z,6.20
2022-08-19T08:03:13.866Z,8.13
2022-08-19T08:05:59.906Z,7.00
2022-08-19T08:08:48.058Z,6.40
2022-08-19T08:11:20.071Z,6.50
2022-08-19T08:14:01.325Z,6.57
2022-08-19T08:16:39.491Z,6.32
2022-08-19T08:19:25.730Z,6.38
2022-08-19T08:21:59.229Z,6.57
2022-08-19T08:24:31.697Z,6.68
2022-08-19T08:27:01.293Z,5.80
2022-08-19T08:29:34.935Z,6.35
2022-08-19T08:32:02.496Z,6.68
2022-08-19T08:34:29.512Z,6.30
2022-08-19T08:36:56.916Z,5.78
2022-08-19T08:39:24.019Z,5.72
2022-08-19T08:42:20.984Z,6.10
2022-08-19T08:45:01.049Z,6.07
2022-08-19T08:47:41.918Z,5.85
2022-08-19T08:50:20.473Z,5.72
2022-08-19T08:52:49.220Z,5.20
2022-08-19T08:55:21.957Z,5.45
2022-08-19T08:57:49.632Z,6.15
2022-08-19T09:00:27.515Z,5.82
2022-08-19T09:02:56.123Z,5.60
2022-08-19T09:05:27.427Z,5.25
2022-08-19T09:08:27.614Z,5.50
2022-08-19T09:10:58.300Z,5.82
2022-08-19T09:14:03.967Z,5.22
2022-08-19T09:16:31.548Z,5.63
2022-08-19T09:19:08.277Z,5.15
2022-08-19T09:21:39.401Z,5.90
2022-08-19T09:24:07.938Z,5.30
2022-08-19T09:26:48.586Z,5.43
2022-08-19T09:29:22.585Z,5.50
2022-08-19T09:31:51.148Z,6.10
2022-08-19T09:34:21.459Z,5.75
2022-08-19T09:36:54.229Z,6.05
2022-08-19T09:39:22.263Z,6.15
2022-08-19T09:41:52.278Z,5.95
2022-08-19T09:44:21.365Z,5.50
2022-08-19T09:46:52.444Z,5.90
2022-08-19T09:49:22.749Z,6.83
2022-08-19T09:51:55.326Z,5.45
2022-08-19T09:54:23.837Z,5.72
2022-08-19T09:56:54.097Z,6.10
2022-08-19T09:59:21.619Z,6.07
2022-08-19T10:01:48.878Z,5.90
2022-08-19T10:04:20.429Z,5.50
2022-08-19T10:06:53.632Z,5.80
2022-08-19T10:09:26.297Z,5.63
2022-08-19T10:12:02.724Z,6.15
2022-08-19T10:14:30.416Z,6.28
2022-08-19T10:16:59.179Z,6.00
2022-08-19T10:19:26.839Z,6.25
2022-08-19T10:22:00.275Z,5.38
2022-08-19T10:24:29.283Z,5.90
2022-08-19T10:26:59.973Z,6.10
2022-08-19T10:29:31.937Z,6.15
2022-08-19T10:32:03.769Z,5.40
2022-08-19T10:34:32.257Z,5.72
2022-08-19T10:37:01.884Z,5.60
2022-08-19T10:39:43.422Z,5.72
2022-08-19T10:42:23.180Z,5.25
2022-08-19T10:44:51.883Z,5.88
2022-08-19T10:47:25.023Z,5.30
2022-08-19T10:50:14.891Z,5.30
2022-08-19T10:52:48.984Z,5.60
2022-08-19T10:55:39.147Z,5.78
2022-08-19T10:58:23.194Z,5.70
2022-08-19T11:00:59.809Z,4.95
2022-08-19T11:03:30.386Z,5.47
2022-08-19T11:06:07.779Z,5.22
2022-08-19T11:08:38.494Z,5.97
2022-08-19T11:11:07.418Z,5.15
2022-08-19T11:13:40.570Z,5.38
2022-08-19T11:16:18.701Z,5.65
2022-08-19T11:18:52.531Z,5.35
2022-08-19T11:21:32.841Z,5.65
2022-08-19T11:24:01.298Z,6.05
2022-08-19T11:26:30.318Z,6.00
2022-08-19T11:28:59.069Z,5.45
2022-08-19T11:31:33.351Z,6.00
2022-08-19T11:34:04.029Z,5.70
2022-08-19T11:36:33.537Z,5.38
2022-08-19T11:39:02.954Z,5.32
2022-08-19T11:41:30.106Z,4.72
2022-08-19T11:43:57.525Z,5.25
2022-08-19T11:46:28.270Z,4.95
2022-08-19T11:48:55.390Z,4.63
2022-08-19T11:51:28.058Z,5.65
2022-08-19T11:53:58.171Z,5.68
2022-08-19T11:56:26.558Z,5.40
2022-08-19T11:58:55.151Z,5.00
2022-08-19T12:01:25.990Z,5.47
2022-08-19T12:03:56.903Z,5.38
2022-08-19T12:06:29.484Z,5.03
2022-08-19T12:09:06.265Z,4.57
2022-08-19T12:11:34.680Z,5.13
2022-08-19T12:14:01.956Z,4.53
2022-08-19T12:16:31.672Z,5.10
2022-08-19T12:19:04.419Z,5.43
2022-08-19T12:21:35.057Z,5.30
2022-08-19T12:24:04.880Z,5.10
2022-08-19T12:26:32.582Z,5.38
2022-08-19T12:31:31.180Z,4.38
2022-08-19T12:33:58.206Z,5.35
2022-08-19T12:36:26.253Z,5.97
2022-08-19T12:38:53.937Z,4.95
2022-08-19T12:41:23.239Z,5.30
2022-08-19T12:43:50.879Z,5.40
2022-08-19T12:46:22.295Z,5.43
2022-08-19T12:48:55.305Z,5.85
2022-08-19T12:51:22.584Z,5.30
2022-08-19T12:53:50.907Z,5.45
2022-08-19T12:56:23.000Z,5.30
2022-08-19T12:58:50.948Z,5.55
2022-08-19T13:01:23.117Z,5.25
2022-08-19T13:03:53.431Z,6.10
2022-08-19T13:06:20.943Z,5.72
2022-08-19T13:08:48.637Z,5.90
2022-08-19T13:11:20.004Z,5.22
2022-08-19T13:13:52.078Z,6.20
2022-08-19T13:16:21.248Z,5.75
2022-08-19T13:18:49.181Z,5.60
2022-08-19T13:21:16.669Z,6.47
2022-08-19T13:23:44.006Z,5.70
2022-08-19T13:26:13.736Z,6.03
2022-08-19T13:29:01.494Z,5.82
2022-08-19T13:31:50.815Z,5.07
2022-08-19T13:34:26.964Z,5.53
2022-08-19T13:36:59.422Z,4.82
2022-08-19T13:39:28.533Z,6.00
2022-08-19T13:41:55.690Z,5.18
2022-08-19T13:44:23.514Z,6.10
2022-08-19T13:46:54.193Z,5.30
2022-08-19T13:49:21.607Z,5.60
2022-08-19T13:51:48.795Z,5.63
2022-08-19T13:54:16.018Z,5.50
2022-08-19T13:56:46.931Z,5.95
2022-08-19T13:59:15.501Z,5.30
2022-08-19T14:01:46.429Z,5.80
2022-08-19T14:04:14.422Z,5.28
2022-08-19T14:06:45.917Z,5.65
2022-08-19T14:11:55.248Z,5.50
2022-08-19T14:14:25.229Z,4.78
2022-08-19T14:16:57.936Z,4.68
2022-08-19T14:19:25.154Z,5.55
2022-08-19T14:21:58.557Z,4.93
2022-08-19T14:24:26.116Z,4.95
2022-08-19T14:26:53.472Z,5.50
2022-08-19T14:29:20.971Z,5.55
2022-08-19T14:31:48.029Z,5.57
2022-08-19T14:34:15.006Z,5.25
2022-08-19T14:36:42.911Z,5.20
2022-08-19T14:39:12.658Z,4.80
2022-08-19T14:41:42.234Z,5.10
2022-08-19T14:44:13.258Z,4.90
2022-08-19T14:46:41.371Z,4.75
2022-08-19T14:49:16.447Z,5.38
2022-08-19T14:51:43.550Z,5.00
2022-08-19T14:54:10.683Z,5.32
2022-08-19T14:56:37.747Z,5.18
2022-08-19T14:59:04.788Z,4.97
2022-08-19T15:01:32.069Z,5.63
2022-08-19T15:03:59.357Z,6.03
2022-08-19T15:06:27.460Z,6.25
2022-08-19T15:08:55.238Z,5.35
2022-08-19T15:11:27.693Z,6.15
2022-08-19T15:13:56.680Z,6.00
2022-08-19T15:16:26.194Z,5.30
2022-08-19T15:19:19.115Z,5.32
2022-08-19T15:21:46.172Z,6.15
2022-08-19T15:24:13.158Z,5.78
2022-08-19T15:26:41.762Z,5.93
2022-08-19T15:29:09.247Z,5.28
2022-08-19T15:31:38.748Z,5.75
2022-08-19T15:34:07.065Z,6.20
2022-08-19T15:36:35.323Z,5.50
2022-08-19T15:39:07.375Z,5.70
2022-08-19T15:41:34.737Z,5.15
2022-08-19T15:44:09.568Z,5.05
2022-08-19T15:46:40.398Z,5.65
2022-08-19T15:49:08.780Z,5.22
2022-08-19T15:51:39.125Z,4.65
2022-08-19T15:54:10.500Z,4.95
2022-08-19T15:56:57.736Z,4.78
2022-08-19T15:59:47.208Z,4.60
2022-08-19T16:02:37.219Z,4.57
2022-08-19T16:05:27.386Z,4.90
2022-08-19T16:07:54.822Z,4.75
2022-08-19T16:10:27.503Z,4.85
2022-08-19T16:12:57.865Z,5.15
2022-08-19T16:15:28.007Z,4.18
2022-08-19T16:17:58.184Z,4.65
2022-08-19T16:20:27.422Z,5.07
2022-08-19T16:22:59.044Z,4.60
2022-08-19T16:28:07.922Z,4.50
2022-08-19T16:30:39.314Z,4.35
2022-08-19T16:33:07.191Z,4.68
2022-08-19T16:35:34.737Z,4.03
2022-08-19T16:38:02.731Z,4.28
2022-08-19T16:40:29.832Z,4.45
2022-08-19T16:42:59.155Z,3.88
2022-08-19T16:45:26.227Z,4.22
2022-08-19T16:47:53.812Z,3.88
2022-08-19T16:50:25.339Z,4.00
2022-08-19T16:53:00.524Z,4.15
2022-08-19T16:55:28.402Z,4.55
2022-08-19T16:57:55.566Z,4.28
2022-08-19T17:00:23.219Z,4.03
2022-08-19T17:02:50.338Z,4.68
2022-08-19T17:05:17.446Z,4.50
2022-08-19T17:07:45.038Z,4.45
2022-08-19T17:10:12.087Z,4.28
2022-08-19T17:12:39.146Z,4.35
2022-08-19T17:15:08.523Z,4.38
2022-08-19T17:17:37.293Z,4.43
2022-08-19T17:20:05.490Z,4.32
2022-08-19T17:22:32.600Z,4.72
2022-08-19T17:24:59.557Z,4.90
2022-08-19T17:27:31.393Z,6.05
2022-08-19T17:30:04.528Z,5.32
2022-08-19T17:32:35.635Z,6.45
2022-08-19T17:35:04.739Z,5.57
2022-08-19T17:37:32.598Z,6.28
2022-08-19T17:39:59.723Z,6.38
2022-08-19T17:42:26.964Z,6.60
2022-08-19T17:44:54.299Z,7.13
2022-08-19T17:47:21.415Z,6.20
2022-08-19T17:49:48.466Z,8.07
2022-08-19T17:52:15.576Z,6.43
2022-08-19T17:54:42.566Z,7.63
2022-08-19T17:57:09.842Z,6.95
2022-08-19T17:59:39.828Z,6.68
2022-08-19T18:02:10.046Z,6.75
2022-08-19T18:04:38.419Z,7.55
2022-08-19T18:07:06.394Z,7.72
2022-08-19T18:09:42.254Z,7.80
2022-08-19T18:12:13.134Z,7.70
2022-08-19T18:14:41.212Z,7.93
2022-08-19T18:17:13.628Z,7.70
2022-08-19T18:19:43.758Z,7.75
2022-08-19T18:22:22.527Z,8.50
2022-08-19T18:24:49.974Z,8.13
2022-08-19T18:27:17.334Z,8.93
2022-08-19T18:29:45.439Z,8.27
2022-08-19T18:32:13.598Z,8.90
2022-08-19T18:34:43.419Z,8.70
2022-08-19T18:37:11.189Z,8.20
2022-08-19T18:39:57.406Z,8.52
2022-08-19T18:42:43.875Z,8.90
2022-08-19T18:45:30.377Z,8.52
2022-08-19T18:48:27.354Z,9.68
2022-08-19T18:53:45.398Z,9.15
2022-08-19T18:56:15.541Z,8.60
2022-08-19T18:58:44.221Z,9.02
2022-08-19T19:01:30.977Z,9.38
2022-08-19T19:04:04.287Z,8.95
2022-08-19T19:06:38.019Z,9.27
2022-08-19T19:09:15.462Z,9.85
2022-08-19T19:11:46.769Z,8.80
2022-08-19T19:14:47.748Z,9.57
2022-08-19T19:17:14.340Z,9.77
2022-08-19T19:19:42.886Z,9.27
2022-08-19T19:22:14.681Z,9.52
2022-08-19T19:24:45.250Z,9.82
2022-08-19T19:27:15.463Z,10.38
2022-08-19T19:29:43.060Z,10.10
2022-08-19T19:32:21.733Z,10.07
2022-08-19T19:34:49.626Z,10.05
2022-08-19T19:37:19.526Z,10.70
2022-08-19T19:39:49.649Z,10.52
2022-08-19T19:42:21.361Z,10.25
2022-08-19T19:44:52.298Z,11.02
2022-08-19T19:47:19.880Z,10.73
2022-08-19T19:50:13.801Z,11.35
2022-08-19T19:52:40.006Z,11.18
2022-08-19T19:55:09.461Z,11.15
2022-08-19T19:57:37.440Z,11.20
2022-08-19T20:00:07.016Z,10.98
2022-08-19T20:02:34.161Z,11.48
2022-08-19T20:05:01.617Z,11.35
2022-08-19T20:07:47.030Z,11.30
2022-08-19T20:10:14.198Z,11.30
2022-08-19T20:12:44.533Z,11.63
2022-08-19T20:15:12.433Z,11.45
2022-08-19T20:17:42.291Z,11.50
2022-08-19T20:20:13.925Z,11.52
2022-08-19T20:25:12.192Z,11.13
2022-08-19T20:27:52.276Z,10.77
2022-08-19T20:30:21.892Z,11.15
2022-08-19T20:32:50.597Z,11.13
2022-08-19T20:35:20.772Z,11.20
2022-08-19T20:37:52.861Z,10.63
2022-08-19T20:40:23.759Z,11.10
2022-08-19T20:42:50.879Z,12.38
2022-08-19T20:45:32.895Z,12.25
2022-08-19T20:48:07.216Z,13.05
2022-08-19T20:50:39.657Z,11.90
2022-08-19T20:53:16.270Z,12.60
2022-08-19T20:55:46.951Z,12.10
2022-08-19T20:58:21.195Z,13.75
2022-08-19T21:00:50.886Z,12.20
2022-08-19T21:03:21.546Z,13.02
2022-08-19T21:05:50.271Z,13.88
2022-08-19T21:10:52.381Z,13.02
2022-08-19T21:13:20.899Z,13.00
2022-08-19T21:15:48.818Z,13.40
2022-08-19T21:18:19.819Z,13.32
2022-08-19T21:20:47.870Z,14.35
2022-08-19T21:23:25.755Z,13.20
2022-08-19T21:25:54.886Z,13.07
2022-08-19T21:28:34.338Z,13.68
2022-08-19T21:31:06.259Z,14.13
2022-08-19T21:33:40.785Z,14.27
2022-08-19T21:36:11.393Z,13.35
2022-08-19T21:38:38.781Z,13.60
2022-08-19T21:41:06.867Z,14.98
2022-08-19T21:43:36.813Z,14.07
2022-08-19T21:46:04.685Z,12.15
2022-08-19T21:48:31.795Z,13.85
2022-08-19T21:50:58.863Z,14.00
2022-08-19T21:53:31.561Z,13.30
2022-08-19T21:56:09.157Z,13.23
2022-08-19T21:58:38.696Z,13.05
2022-08-19T22:01:07.823Z,14.13
2022-08-19T22:03:37.462Z,13.57
2022-08-19T22:06:05.166Z,14.13
2022-08-19T22:08:32.373Z,13.77
2022-08-19T22:10:59.432Z,12.85
2022-08-19T22:13:27.370Z,13.32
2022-08-19T22:15:55.326Z,14.60
2022-08-19T22:18:22.356Z,14.32
2022-08-19T22:20:50.240Z,13.52
2022-08-19T22:23:17.319Z,13.55
2022-08-19T22:25:47.220Z,13.82
2022-08-19T22:28:18.762Z,14.07
2022-08-19T22:30:51.102Z,14.13
2022-08-19T22:33:20.796Z,14.85
2022-08-19T22:35:48.916Z,14.00
2022-08-19T22:38:16.614Z,13.75
2022-08-19T22:40:48.419Z,14.10
2022-08-19T22:43:37.395Z,14.40
2022-08-19T22:46:06.514Z,15.07
2022-08-19T22:48:45.293Z,15.38
2022-08-19T22:51:31.094Z,15.60
2022-08-19T22:53:58.109Z,17.65
2022-08-19T22:56:25.799Z,15.63
2022-08-19T22:58:52.857Z,16.00
2022-08-19T23:01:24.840Z,15.13
2022-08-19T23:03:56.646Z,15.43
2022-08-19T23:06:23.823Z,16.05
2022-08-19T23:09:00.272Z,16.65
2022-08-19T23:11:27.263Z,17.27
2022-08-19T23:13:54.313Z,17.40
2022-08-19T23:16:21.350Z,17.92
2022-08-19T23:18:48.629Z,16.55
2022-08-19T23:21:16.563Z,18.52
2022-08-19T23:23:44.152Z,17.95
2022-08-19T23:26:11.863Z,19.80
2022-08-19T23:28:58.127Z,18.48
2022-08-19T23:31:27.162Z,18.80
2022-08-19T23:33:54.212Z,19.67
2022-08-19T23:36:22.810Z,20.00
2022-08-19T23:38:52.374Z,19.17
2022-08-19T23:41:22.251Z,21.15
2022-08-19T23:43:50.822Z,19.58
2022-08-19T23:46:27.554Z,19.85
2022-08-19T23:48:57.034Z,19.42
2022-08-19T23:51:26.436Z,18.52
2022-08-19T23:53:53.561Z,20.58
2022-08-19T23:56:21.482Z,20.05
2022-08-19T23:58:49.215Z,20.20
